createdAt,value
2023-01-11T00:00:37.338Z,7.38
2023-01-11T00:03:05.372Z,11.32
2023-01-11T00:05:32.559Z,7.75
2023-01-11T00:07:59.781Z,7.25
2023-01-11T00:10:27.032Z,6.70
2023-01-11T00:12:54.131Z,7.28
2023-01-11T00:15:21.233Z,7.20
2023-01-11T00:17:48.366Z,7.78
2023-01-11T00:20:15.598Z,6.60
2023-01-11T00:22:42.768Z,6.70
2023-01-11T00:25:10.073Z,7.18
2023-01-11T00:27:37.198Z,7.00
2023-01-11T00:30:04.513Z,8.20
2023-01-11T00:32:31.653Z,6.93
2023-01-11T00:34:58.798Z,6.50
2023-01-11T00:37:25.912Z,6.78
2023-01-11T00:39:53.040Z,6.25
2023-01-11T00:42:38.927Z,7.38
2023-01-11T00:45:25.027Z,5.78
2023-01-11T00:47:58.253Z,7.25
2023-01-11T00:50:26.152Z,5.68
2023-01-11T00:52:53.377Z,5.45
2023-01-11T00:55:20.499Z,5.85
2023-01-11T00:57:47.701Z,5.97
2023-01-11T01:00:14.939Z,6.13
2023-01-11T01:02:42.169Z,7.93
2023-01-11T01:05:09.653Z,7.03
2023-01-11T01:07:37.278Z,7.03
2023-01-11T01:10:04.716Z,5.82
2023-01-11T01:12:50.470Z,6.25
2023-01-11T01:15:17.664Z,5.30
2023-01-11T01:17:44.797Z,5.53
2023-01-11T01:20:12.090Z,6.28
2023-01-11T01:22:39.281Z,5.95
2023-01-11T01:25:06.587Z,5.30
2023-01-11T01:27:34.224Z,5.38
2023-01-11T01:30:01.418Z,6.40
2023-01-11T01:32:28.578Z,5.72
2023-01-11T01:34:55.778Z,5.30
2023-01-11T01:37:22.896Z,6.00
2023-01-11T01:39:50.082Z,5.07
2023-01-11T01:42:18.141Z,5.15
2023-01-11T01:45:06.768Z,5.43
2023-01-11T01:47:42.943Z,4.90
2023-01-11T01:50:15.274Z,5.72
2023-01-11T01:52:43.057Z,5.05
2023-01-11T01:55:13.416Z,5.57
2023-01-11T01:57:43.892Z,4.72
2023-01-11T02:00:11.473Z,5.25
2023-01-11T02:02:39.517Z,4.88
2023-01-11T02:05:07.141Z,4.80
2023-01-11T02:07:35.227Z,6.28
2023-01-11T02:10:08.075Z,5.68
2023-01-11T02:12:48.183Z,5.95
2023-01-11T02:15:17.125Z,5.28
2023-01-11T02:17:44.297Z,4.57
2023-01-11T02:20:14.211Z,4.95
2023-01-11T02:22:59.997Z,4.40
2023-01-11T02:25:27.141Z,5.22
2023-01-11T02:28:07.653Z,5.13
2023-01-11T02:30:55.148Z,4.90
2023-01-11T02:33:33.840Z,6.45
2023-01-11T02:36:10.889Z,4.53
2023-01-11T02:38:45.506Z,4.40
2023-01-11T02:41:15.449Z,6.60
2023-01-11T02:44:09.063Z,4.25
2023-01-11T02:46:43.531Z,4.68
2023-01-11T02:49:25.692Z,5.15
2023-01-11T02:51:55.340Z,10.75
2023-01-11T02:54:23.634Z,4.47
2023-01-11T02:56:52.420Z,5.28
2023-01-11T02:59:21.183Z,6.18
2023-01-11T03:01:49.906Z,4.05
2023-01-11T03:04:30.694Z,4.32
2023-01-11T03:07:12.095Z,4.72
2023-01-11T03:09:53.184Z,4.50
2023-01-11T03:12:44.704Z,3.78
2023-01-11T03:15:17.941Z,4.35
2023-01-11T03:17:45.040Z,4.13
2023-01-11T03:20:24.983Z,5.57
2023-01-11T03:22:52.078Z,4.03
2023-01-11T03:25:19.273Z,4.05
2023-01-11T03:27:58.659Z,4.30
2023-01-11T03:30:34.279Z,4.53
2023-01-11T03:33:11.370Z,4.68
2023-01-11T03:35:41.736Z,3.33
2023-01-11T03:38:29.106Z,3.90
2023-01-11T03:40:58.528Z,5.15
2023-01-11T03:43:26.412Z,3.72
2023-01-11T03:45:55.873Z,4.15
2023-01-11T03:48:45.715Z,3.92
2023-01-11T03:51:15.084Z,3.90
2023-01-11T03:53:44.646Z,3.55
2023-01-11T03:56:13.541Z,3.50
2023-01-11T03:58:40.698Z,3.40
2023-01-11T04:01:08.473Z,4.13
2023-01-11T04:03:35.646Z,3.75
2023-01-11T04:06:03.223Z,6.43
2023-01-11T04:08:31.283Z,3.65
2023-01-11T04:10:58.604Z,7.68
2023-01-11T04:13:25.883Z,3.85
2023-01-11T04:15:54.347Z,3.72
2023-01-11T04:18:21.515Z,3.75
2023-01-11T04:20:48.736Z,4.03
2023-01-11T04:23:15.888Z,3.10
2023-01-11T04:25:43.002Z,3.33
2023-01-11T04:28:10.117Z,3.50
2023-01-11T04:30:37.329Z,5.30
2023-01-11T04:33:04.598Z,4.50
2023-01-11T04:35:31.983Z,3.67
2023-01-11T04:37:59.264Z,3.28
2023-01-11T04:40:26.409Z,3.05
2023-01-11T04:42:53.563Z,3.83
2023-01-11T04:45:20.897Z,3.22
2023-01-11T04:47:53.747Z,5.30
2023-01-11T04:50:20.960Z,2.97
2023-01-11T04:52:48.158Z,4.47
2023-01-11T04:55:15.610Z,3.33
2023-01-11T04:57:44.328Z,4.30
2023-01-11T05:00:12.078Z,3.33
2023-01-11T05:02:39.973Z,3.88
2023-01-11T05:05:07.584Z,3.65
2023-01-11T05:07:35.257Z,4.03
2023-01-11T05:10:02.935Z,3.60
2023-01-11T05:12:30.095Z,3.15
2023-01-11T05:14:57.241Z,3.00
2023-01-11T05:17:24.404Z,3.65
2023-01-11T05:19:51.513Z,3.90
2023-01-11T05:22:18.624Z,5.32
2023-01-11T05:24:45.769Z,3.45
2023-01-11T05:27:12.892Z,3.42
2023-01-11T05:29:40.008Z,2.95
2023-01-11T05:32:07.243Z,4.30
2023-01-11T05:34:34.482Z,4.78
2023-01-11T05:37:01.705Z,5.13
2023-01-11T05:39:28.837Z,3.03
2023-01-11T05:41:55.975Z,2.80
2023-01-11T05:44:41.995Z,4.22
2023-01-11T05:47:09.163Z,2.85
2023-01-11T05:49:36.280Z,3.17
2023-01-11T05:52:03.458Z,2.95
2023-01-11T05:54:30.616Z,3.42
2023-01-11T05:56:58.392Z,4.10
2023-01-11T05:59:26.804Z,6.25
2023-01-11T06:01:54.148Z,7.40
2023-01-11T06:04:21.369Z,3.30
2023-01-11T06:06:48.547Z,8.77
2023-01-11T06:09:15.964Z,3.75
2023-01-11T06:11:43.124Z,4.75
2023-01-11T06:14:10.253Z,3.55
2023-01-11T06:16:37.493Z,4.25
2023-01-11T06:19:04.706Z,4.43
2023-01-11T06:21:31.872Z,8.75
2023-01-11T06:23:59.077Z,8.02
2023-01-11T06:26:26.284Z,4.80
2023-01-11T06:28:53.491Z,4.97
2023-01-11T06:31:20.753Z,4.90
2023-01-11T06:33:48.270Z,4.63
2023-01-11T06:36:15.966Z,5.35
2023-01-11T06:38:43.582Z,5.80
2023-01-11T06:41:11.596Z,7.30
2023-01-11T06:43:41.623Z,8.68
2023-01-11T06:46:15.705Z,8.23
2023-01-11T06:48:43.467Z,7.43
2023-01-11T06:51:11.929Z,6.55
2023-01-11T06:53:39.651Z,6.97
2023-01-11T06:56:06.922Z,7.13
2023-01-11T06:58:34.075Z,7.85
2023-01-11T07:01:01.521Z,8.10
2023-01-11T07:03:28.859Z,11.70
2023-01-11T07:05:57.308Z,10.95
2023-01-11T07:08:25.180Z,11.15
2023-01-11T07:10:52.872Z,9.27
2023-01-11T07:13:20.042Z,7.32
2023-01-11T07:15:49.881Z,7.10
2023-01-11T07:18:18.484Z,8.98
2023-01-11T07:20:45.689Z,6.13
2023-01-11T07:23:12.880Z,6.88
2023-01-11T07:25:40.935Z,10.65
2023-01-11T07:28:08.819Z,6.82
2023-01-11T07:30:48.127Z,5.82
2023-01-11T07:33:23.088Z,7.95
2023-01-11T07:35:50.306Z,8.82
2023-01-11T07:38:17.566Z,6.78
2023-01-11T07:40:44.753Z,10.35
2023-01-11T07:43:15.579Z,8.90
2023-01-11T07:45:48.047Z,7.15
2023-01-11T07:48:16.615Z,7.05
2023-01-11T07:50:45.289Z,8.10
2023-01-11T07:53:13.172Z,9.82
2023-01-11T07:55:40.920Z,5.65
2023-01-11T07:58:12.303Z,7.63
2023-01-11T08:00:40.766Z,7.47
2023-01-11T08:03:08.112Z,9.00
2023-01-11T08:05:35.440Z,6.03
2023-01-11T08:08:02.817Z,9.02
2023-01-11T08:10:30.335Z,8.80
2023-01-11T08:13:16.597Z,8.02
2023-01-11T08:15:44.127Z,7.18
2023-01-11T08:18:12.475Z,6.00
2023-01-11T08:20:40.484Z,6.20
2023-01-11T08:23:08.726Z,6.60
2023-01-11T08:25:36.015Z,6.22
2023-01-11T08:28:04.244Z,7.05
2023-01-11T08:30:31.475Z,6.82
2023-01-11T08:33:00.957Z,4.70
2023-01-11T08:35:28.169Z,4.97
2023-01-11T08:37:55.340Z,5.53
2023-01-11T08:40:24.287Z,4.75
2023-01-11T08:43:00.505Z,6.93
2023-01-11T08:45:27.962Z,5.40
2023-01-11T08:47:55.877Z,7.20
2023-01-11T08:50:23.250Z,4.85
2023-01-11T08:52:51.640Z,6.32
2023-01-11T08:55:19.708Z,4.95
2023-01-11T08:57:46.902Z,6.85
2023-01-11T09:00:14.308Z,4.90
2023-01-11T09:02:41.561Z,5.80
2023-01-11T09:05:09.011Z,8.73
2023-01-11T09:07:36.172Z,4.68
2023-01-11T09:10:03.459Z,5.00
2023-01-11T09:12:32.507Z,5.22
2023-01-11T09:15:01.224Z,6.47
2023-01-11T09:17:28.786Z,7.03
2023-01-11T09:19:55.983Z,7.32
2023-01-11T09:22:23.237Z,4.90
2023-01-11T09:24:50.462Z,4.82
2023-01-11T09:27:18.208Z,5.35
2023-01-11T09:29:46.247Z,5.00
2023-01-11T09:32:13.507Z,5.00
2023-01-11T09:34:42.747Z,5.57
2023-01-11T09:37:12.796Z,5.28
2023-01-11T09:39:41.357Z,5.28
2023-01-11T09:42:15.255Z,7.35
2023-01-11T09:44:52.921Z,6.63
2023-01-11T09:47:28.849Z,6.72
2023-01-11T09:49:58.285Z,4.63
2023-01-11T09:52:39.689Z,5.00
2023-01-11T09:55:07.685Z,4.68
2023-01-11T09:57:51.875Z,5.35
2023-01-11T10:00:32.143Z,9.05
2023-01-11T10:03:23.595Z,5.68
2023-01-11T10:05:56.024Z,5.43
2023-01-11T10:18:29.957Z,6.93
2023-01-11T10:18:34.382Z,5.72
2023-01-11T10:20:13.834Z,6.63
2023-01-11T10:22:44.114Z,5.10
2023-01-11T10:25:24.794Z,4.78
2023-01-11T10:27:59.050Z,4.95
2023-01-11T10:30:32.726Z,9.10
2023-01-11T10:33:18.674Z,8.70
2023-01-11T10:36:16.579Z,8.48
2023-01-11T10:38:59.791Z,7.82
2023-01-11T10:41:43.104Z,8.70
2023-01-11T10:44:10.544Z,7.45
2023-01-11T10:46:39.972Z,12.45
2023-01-11T10:49:25.914Z,7.20
2023-01-11T10:51:54.084Z,14.32
2023-01-11T10:54:24.793Z,5.65
2023-01-11T10:57:01.728Z,10.85
2023-01-11T10:59:38.174Z,10.23
2023-01-11T11:02:11.094Z,9.55
2023-01-11T11:04:50.213Z,39.00
2023-01-11T11:07:20.165Z,30.35
2023-01-11T11:09:56.378Z,20.23
2023-01-11T11:12:29.729Z,17.48
2023-01-11T11:15:02.888Z,15.20
2023-01-11T11:17:34.141Z,12.90
2023-01-11T11:20:01.506Z,12.93
2023-01-11T11:22:28.702Z,14.05
2023-01-11T11:25:12.935Z,12.75
2023-01-11T11:27:40.035Z,9.20
2023-01-11T11:30:10.699Z,11.00
2023-01-11T11:32:39.228Z,12.52
2023-01-11T11:35:08.088Z,14.45
2023-01-11T11:37:36.664Z,10.27
2023-01-11T11:40:04.405Z,16.27
2023-01-11T11:42:31.654Z,11.80
2023-01-11T11:45:07.765Z,12.63
2023-01-11T11:47:35.127Z,13.48
2023-01-11T11:50:42.626Z,14.48
2023-01-11T11:53:08.028Z,13.55
2023-01-11T11:55:36.082Z,9.18
2023-01-11T11:58:08.561Z,10.60
2023-01-11T12:00:41.628Z,11.95
2023-01-11T12:03:15.133Z,11.63
2023-01-11T12:05:51.418Z,14.68
2023-01-11T12:08:19.221Z,16.95
2023-01-11T12:10:55.193Z,13.98
2023-01-11T12:13:35.618Z,16.83
2023-01-11T12:16:04.403Z,11.52
2023-01-11T12:18:41.174Z,10.68
2023-01-11T12:21:17.944Z,10.75
2023-01-11T12:23:45.388Z,9.02
2023-01-11T12:26:12.926Z,7.13
2023-01-11T12:28:49.323Z,7.05
2023-01-11T12:31:16.588Z,5.80
2023-01-11T12:34:01.329Z,7.82
2023-01-11T12:36:47.136Z,6.53
2023-01-11T12:39:32.761Z,6.00
2023-01-11T12:42:07.219Z,9.27
2023-01-11T12:44:43.547Z,50.83
2023-01-11T12:47:10.707Z,49.88
2023-01-11T12:49:42.819Z,160.38
2023-01-11T12:52:09.971Z,503.50
2023-01-11T12:54:43.133Z,772.67
2023-01-11T12:57:33.266Z,1126.82
2023-01-11T13:00:20.205Z,962.88
2023-01-11T13:02:47.494Z,839.30
2023-01-11T13:05:33.356Z,773.15
2023-01-11T13:08:14.005Z,661.85
2023-01-11T13:10:47.255Z,593.65
2023-01-11T13:13:32.900Z,519.45
2023-01-11T13:16:00.028Z,513.10
2023-01-11T13:18:44.223Z,375.60
2023-01-11T13:21:14.322Z,236.07
2023-01-11T13:23:54.707Z,186.98
2023-01-11T13:26:25.818Z,164.85
2023-01-11T13:29:01.566Z,151.05
2023-01-11T13:33:59.167Z,155.52
2023-01-11T13:36:37.415Z,144.63
2023-01-11T13:39:28.122Z,138.45
2023-01-11T13:41:57.542Z,136.32
2023-01-11T13:44:24.688Z,141.00
2023-01-11T13:47:05.363Z,130.75
2023-01-11T13:49:49.440Z,128.55
2023-01-11T13:52:18.350Z,115.18
2023-01-11T13:54:56.740Z,115.32
2023-01-11T13:57:27.917Z,103.65
2023-01-11T13:59:58.239Z,94.85
2023-01-11T14:02:25.396Z,92.97
2023-01-11T14:04:55.082Z,96.50
2023-01-11T14:07:34.229Z,93.65
2023-01-11T14:10:04.265Z,80.47
2023-01-11T14:12:50.363Z,79.03
2023-01-11T14:15:17.486Z,96.30
2023-01-11T14:17:59.543Z,78.95
2023-01-11T14:20:38.659Z,85.97
2023-01-11T14:23:10.712Z,75.82
2023-01-11T14:25:49.455Z,84.10
2023-01-11T14:28:27.674Z,77.05
2023-01-11T14:31:00.635Z,76.68
2023-01-11T14:33:36.253Z,72.35
2023-01-11T14:36:22.164Z,71.60
2023-01-11T14:39:01.631Z,71.00
2023-01-11T14:41:45.109Z,74.65
2023-01-11T14:44:22.469Z,72.57
2023-01-11T14:47:08.559Z,79.07
2023-01-11T14:49:51.081Z,90.28
2023-01-11T14:52:34.549Z,110.70
2023-01-11T14:55:08.504Z,109.43
2023-01-11T14:57:43.109Z,107.60
2023-01-11T15:00:36.599Z,100.25
2023-01-11T15:03:07.093Z,104.10
2023-01-11T15:05:47.616Z,93.85
2023-01-11T15:08:15.122Z,90.22
2023-01-11T15:10:48.341Z,105.25
2023-01-11T15:13:20.086Z,122.57
2023-01-11T15:16:06.121Z,127.38
2023-01-11T15:18:40.336Z,134.32
2023-01-11T15:21:07.617Z,133.02
2023-01-11T15:23:39.311Z,133.45
2023-01-11T15:26:09.423Z,127.82
2023-01-11T15:28:45.675Z,125.88
2023-01-11T15:31:33.968Z,124.13
2023-01-11T15:34:02.600Z,116.95
2023-01-11T15:36:50.114Z,116.38
2023-01-11T15:39:18.025Z,114.97
2023-01-11T15:42:06.520Z,114.78
2023-01-11T15:44:52.327Z,131.60
2023-01-11T15:47:58.119Z,151.70
2023-01-11T15:50:28.262Z,119.88
2023-01-11T15:52:58.102Z,97.63
2023-01-11T15:55:31.389Z,99.75
2023-01-11T15:58:01.395Z,90.47
2023-01-11T16:00:47.436Z,91.30
2023-01-11T16:03:23.556Z,91.95
2023-01-11T16:06:01.383Z,88.60
2023-01-11T16:08:34.027Z,88.22
2023-01-11T16:11:04.085Z,85.75
2023-01-11T16:13:49.180Z,83.05
2023-01-11T16:16:21.531Z,78.95
2023-01-11T16:19:01.348Z,82.22
2023-01-11T16:21:28.481Z,82.93
2023-01-11T16:23:56.137Z,80.15
2023-01-11T16:26:23.474Z,78.95
2023-01-11T16:28:55.385Z,77.43
2023-01-11T16:31:22.578Z,75.75
2023-01-11T16:33:50.203Z,73.43
2023-01-11T16:36:22.003Z,73.75
2023-01-11T16:39:09.491Z,71.97
2023-01-11T16:41:56.743Z,72.97
2023-01-11T16:44:34.304Z,70.50
2023-01-11T16:47:06.972Z,70.28
2023-01-11T16:49:34.426Z,69.80
2023-01-11T16:52:02.229Z,68.78
2023-01-11T16:54:33.179Z,67.47
2023-01-11T16:57:00.841Z,63.60
2023-01-11T16:59:30.766Z,59.38
2023-01-11T17:02:05.435Z,52.92
2023-01-11T17:04:35.368Z,49.38
2023-01-11T17:07:14.617Z,48.92
2023-01-11T17:09:43.807Z,43.03
2023-01-11T17:12:15.294Z,43.47
2023-01-11T17:14:51.172Z,40.28
2023-01-11T17:17:20.522Z,41.03
2023-01-11T17:19:49.097Z,45.97
2023-01-11T17:22:18.360Z,44.25
2023-01-11T17:24:53.465Z,44.88
2023-01-11T17:27:23.225Z,41.08
2023-01-11T17:29:52.907Z,43.88
2023-01-11T17:32:23.575Z,40.80
2023-01-11T17:34:51.916Z,41.40
2023-01-11T17:37:19.490Z,46.72
2023-01-11T17:39:52.422Z,45.03
2023-01-11T17:42:38.433Z,47.22
2023-01-11T17:45:19.459Z,46.00
2023-01-11T17:47:49.778Z,42.60
2023-01-11T17:50:25.527Z,43.97
2023-01-11T17:55:25.121Z,39.63
2023-01-11T17:58:10.962Z,42.88
2023-01-11T18:00:38.429Z,38.35
2023-01-11T18:03:11.184Z,37.83
2023-01-11T18:05:38.423Z,38.97
2023-01-11T18:08:09.631Z,38.10
2023-01-11T18:10:40.084Z,38.90
2023-01-11T18:13:07.427Z,38.22
2023-01-11T18:15:37.236Z,36.80
2023-01-11T18:18:06.014Z,38.65
2023-01-11T18:20:34.713Z,37.03
2023-01-11T18:23:16.757Z,36.78
2023-01-11T18:25:46.521Z,36.85
2023-01-11T18:28:21.026Z,36.33
2023-01-11T18:30:48.386Z,40.47
2023-01-11T18:33:19.733Z,44.70
2023-01-11T18:35:48.391Z,38.03
2023-01-11T18:38:25.589Z,41.13
2023-01-11T18:40:53.882Z,38.10
2023-01-11T18:43:25.084Z,39.25
2023-01-11T18:45:52.484Z,39.80
2023-01-11T18:48:19.710Z,39.72
2023-01-11T18:50:48.122Z,40.03
2023-01-11T18:53:16.020Z,36.53
2023-01-11T18:55:43.532Z,40.25
2023-01-11T18:58:10.775Z,36.78
2023-01-11T19:00:38.105Z,37.00
2023-01-11T19:03:06.163Z,35.63
2023-01-11T19:05:33.363Z,36.72
2023-01-11T19:08:00.783Z,33.28
2023-01-11T19:10:28.613Z,33.22
2023-01-11T19:12:57.185Z,32.53
2023-01-11T19:15:24.376Z,33.20
2023-01-11T19:17:51.527Z,34.10
2023-01-11T19:20:18.711Z,33.05
2023-01-11T19:22:45.967Z,43.30
2023-01-11T19:25:13.142Z,33.13
2023-01-11T19:27:40.326Z,35.63
2023-01-11T19:30:07.829Z,35.00
2023-01-11T19:32:35.024Z,30.02
2023-01-11T19:35:02.221Z,32.50
2023-01-11T19:37:30.283Z,31.80
2023-01-11T19:39:57.445Z,30.45
2023-01-11T19:42:24.750Z,28.67
2023-01-11T19:44:51.888Z,28.52
2023-01-11T19:47:19.139Z,30.88
2023-01-11T19:49:46.290Z,28.00
2023-01-11T19:52:18.619Z,31.92
2023-01-11T19:54:46.355Z,27.85
2023-01-11T19:57:15.503Z,28.00
2023-01-11T19:59:42.848Z,30.92
2023-01-11T20:02:11.897Z,27.42
2023-01-11T20:04:39.505Z,28.17
2023-01-11T20:07:07.342Z,29.98
2023-01-11T20:09:37.599Z,28.13
2023-01-11T20:12:05.539Z,26.13
2023-01-11T20:14:33.867Z,35.72
2023-01-11T20:17:01.148Z,28.77
2023-01-11T20:19:28.285Z,29.30
2023-01-11T20:21:55.996Z,28.55
2023-01-11T20:24:28.414Z,25.92
2023-01-11T20:26:56.142Z,30.00
2023-01-11T20:29:23.515Z,26.73
2023-01-11T20:31:50.793Z,30.60
2023-01-11T20:34:18.386Z,27.67
2023-01-11T20:36:46.150Z,28.77
2023-01-11T20:39:13.327Z,24.60
2023-01-11T20:41:46.794Z,24.30
2023-01-11T20:44:16.105Z,25.65
2023-01-11T20:46:44.062Z,25.73
2023-01-11T20:49:12.347Z,25.23
2023-01-11T20:51:39.529Z,26.42
2023-01-11T20:54:06.987Z,29.90
2023-01-11T20:56:34.449Z,26.25
2023-01-11T20:59:02.330Z,34.53
2023-01-11T21:01:30.517Z,31.23
2023-01-11T21:04:08.175Z,24.27
2023-01-11T21:06:36.707Z,28.88
2023-01-11T21:09:04.614Z,26.70
2023-01-11T21:11:32.304Z,24.25
2023-01-11T21:13:59.859Z,22.95
2023-01-11T21:16:28.047Z,24.23
2023-01-11T21:18:58.872Z,25.50
2023-01-11T21:21:26.331Z,28.90
2023-01-11T21:23:58.665Z,23.45
2023-01-11T21:26:26.460Z,31.50
2023-01-11T21:28:55.730Z,23.45
2023-01-11T21:31:23.329Z,22.58
2023-01-11T21:33:50.949Z,26.08
2023-01-11T21:36:19.705Z,23.73
2023-01-11T21:38:46.872Z,28.70
2023-01-11T21:41:15.457Z,37.00
2023-01-11T21:43:43.089Z,32.47
2023-01-11T21:46:10.561Z,26.13
2023-01-11T21:48:37.854Z,30.23
2023-01-11T21:51:08.784Z,26.35
2023-01-11T21:53:36.303Z,28.85
2023-01-11T21:56:04.372Z,29.48
2023-01-11T21:58:31.553Z,26.88
2023-01-11T22:00:58.994Z,27.35
2023-01-11T22:03:29.974Z,25.48
2023-01-11T22:06:01.060Z,28.23
2023-01-11T22:08:28.615Z,25.48
2023-01-11T22:10:56.491Z,25.90
2023-01-11T22:13:23.679Z,23.63
2023-01-11T22:15:51.058Z,25.83
2023-01-11T22:18:18.240Z,27.30
2023-01-11T22:20:45.474Z,22.23
2023-01-11T22:23:12.636Z,22.75
2023-01-11T22:25:39.809Z,23.98
2023-01-11T22:28:06.911Z,19.30
2023-01-11T22:30:34.090Z,26.02
2023-01-11T22:33:01.241Z,19.50
2023-01-11T22:35:28.610Z,24.83
2023-01-11T22:37:55.724Z,23.38
2023-01-11T22:40:22.865Z,22.80
2023-01-11T22:42:49.996Z,28.10
2023-01-11T22:45:17.241Z,22.02
2023-01-11T22:47:44.424Z,23.10
2023-01-11T22:50:11.630Z,19.80
2023-01-11T22:52:39.884Z,22.13
2023-01-11T22:55:07.316Z,20.05
2023-01-11T22:57:34.650Z,20.40
2023-01-11T23:00:04.535Z,18.50
2023-01-11T23:02:31.685Z,18.73
2023-01-11T23:04:58.820Z,17.42
2023-01-11T23:07:25.945Z,18.90
2023-01-11T23:09:53.284Z,22.92
2023-01-11T23:12:39.180Z,23.67
2023-01-11T23:15:06.615Z,16.05
2023-01-11T23:17:33.769Z,16.10
2023-01-11T23:20:00.959Z,18.05
2023-01-11T23:22:28.102Z,16.17
2023-01-11T23:24:55.224Z,15.80
2023-01-11T23:27:22.455Z,18.67
2023-01-11T23:29:49.639Z,15.43
2023-01-11T23:32:16.755Z,14.85
2023-01-11T23:34:43.945Z,15.77
2023-01-11T23:37:11.151Z,16.60
2023-01-11T23:39:38.337Z,14.80
2023-01-11T23:42:24.287Z,16.58
2023-01-11T23:44:51.395Z,18.83
2023-01-11T23:47:21.911Z,17.50
2023-01-11T23:49:50.099Z,16.35
2023-01-11T23:52:17.854Z,15.27
2023-01-11T23:54:45.761Z,19.58
2023-01-11T23:57:13.452Z,15.70
2023-01-11T23:59:41.186Z,15.85
